Terminal Aerodrome Forecast
Issued by NWS Charleston, WV

Current Version | Previous Version | Graphics & Text | Print | Product List | Glossary On
Versions: 1 2 3 4 5 6 7 8 9 10 11 12 13 14 15 16 17 18 19 20 21 22 23 24 25
000
FTUS41 KRLX 082333 CCA
TAFCRW
TAF COR
KCRW 082333Z 0900/0924 24007KT 3SM -SN OVC030
      TEMPO 0900/0901 2SM -SHSN OVC008
     FM090100 24007KT 5SM -SHSN BR OVC030
      TEMPO 0901/0905 2SM -SHSN OVC020
     FM090500 26010G18KT 1SM -SN BR OVC015
     FM091300 25009KT 3SM -SHSN OVC025
     FM091600 25010G19KT 3SM -SHSN OVC025=

USA.gov is the U.S. government's official web portal to all federal, state and local government web resources and services.